Time;durP1;ratioP1;P1;durP2;ratioP2;P2;SDS_P1;SDS_P2;PMS_P1;PMS_P2;Temp;Humidity;BMP_temperature;BMP_pressure;BME280_temperature;BME280_humidity;BME280_pressure;Samples;Min_cycle;Max_cycle;Signal;HPM_P1;HPM_P2
2022/09/21 00:01:23;;;;;;;;;;;;;;;;;;4997917;28;8479;-86
2022/09/21 00:03:53;;;;;;;;;;;;;;;;;;4999529;28;8683;-86
2022/09/21 00:06:20;;;;;;;;;;;;;;;;;;4999839;28;6998;-86
2022/09/21 00:08:46;;;;;;;;;;;;;;;;;;4999863;28;8370;-84
2022/09/21 00:11:16;;;;;;;;;;;;;;;;;;5000645;28;8397;-85
2022/09/21 00:13:44;;;;;;;;;;;;;;;;;;5002340;28;8558;-87
2022/09/21 00:16:10;;;;;;;;;;;;;;;;;;5002346;28;7269;-82
2022/09/21 00:18:36;;;;;;;;;;;;;;;;;;5000835;28;6990;-84
2022/09/21 00:21:05;;;;;;;;;;;;;;;;;;5001103;28;7019;-86
2022/09/21 00:23:30;;;;;;;;;;;;;;;;;;4999294;28;7105;-86
2022/09/21 00:26:11;;;;;;;;;;;;;;;;;;4998560;28;7405;-86
2022/09/21 00:28:37;;;;;;;;;;;;;;;;;;4981001;28;8444;-86
2022/09/21 00:31:05;;;;;;;;;;;;;;;;;;4997145;28;8382;-86
2022/09/21 00:33:31;;;;;;;;;;;;;;;;;;4997934;28;7176;-85
2022/09/21 00:36:02;;;;;;;;;;;;;;;;;;5001021;28;8429;-86
2022/09/21 00:38:27;;;;;;;;;;;;;;;;;;5003685;28;8774;-81
2022/09/21 00:40:52;;;;;;;;;;;;;;;;;;5001303;28;8447;-83
2022/09/21 00:43:18;;;;;;;;;;;;;;;;;;5002369;28;8367;-85
2022/09/21 00:45:47;;;;;;;;;;;;;;;;;;4999623;28;8359;-87
2022/09/21 00:48:14;;;;;;;;;;;;;;;;;;4984281;28;8690;-81
2022/09/21 00:50:45;;;;;;;;;;;;;;;;;;5002387;28;7058;-82
2022/09/21 00:53:11;;;;;;;;;;;;;;;;;;5001931;28;8566;-82
2022/09/21 00:55:41;;;;;;;;;;;;;;;;;;5001413;28;6987;-86
2022/09/21 00:58:16;;;;;;;;;;;;;;;;;;5001153;28;8392;-84
2022/09/21 01:00:42;;;;;;;;;;;;;;;;;;5001172;28;7448;-86
2022/09/21 01:03:10;;;;;;;;;;;;;;;;;;4999476;28;8343;-86
2022/09/21 01:05:35;;;;;;;;;;;;;;;;;;4999442;28;8273;-87
2022/09/21 01:08:04;;;;;;;;;;;;;;;;;;5000382;28;8710;-84
2022/09/21 01:10:41;;;;;;;;;;;;;;;;;;4999205;28;8510;-88
2022/09/21 01:13:18;;;;;;;;;;;;;;;;;;4996894;28;8597;-88
2022/09/21 01:15:53;;;;;;;;;;;;;;;;;;4996656;28;7274;-86
2022/09/21 01:18:38;;;;;;;;;;;;;;;;;;5002773;28;7421;-83
2022/09/21 01:21:04;;;;;;;;;;;;;;;;;;5001520;28;8715;-81
2022/09/21 01:23:56;;;;;;;;;;;;;;;;;;4983506;28;8399;-85
2022/09/21 01:26:40;;;;;;;;;;;;;;;;;;4999365;28;7164;-85
2022/09/21 01:29:05;;;;;;;;;;;;;;;;;;4982697;28;7022;-84
2022/09/21 01:31:37;;;;;;;;;;;;;;;;;;4981988;28;8728;-87
2022/09/21 01:34:09;;;;;;;;;;;;;;;;;;4998636;28;7122;-87
2022/09/21 01:36:37;;;;;;;;;;;;;;;;;;4997045;28;7344;-87
2022/09/21 01:39:10;;;;;;;;;;;;;;;;;;4996478;28;7589;-86
2022/09/21 01:41:38;;;;;;;;;;;;;;;;;;4996825;28;8535;-86
2022/09/21 01:44:11;;;;;;;;;;;;;;;;;;4996296;28;7180;-88
2022/09/21 01:46:37;;;;;;;;;;;;;;;;;;4997701;28;7386;-86
2022/09/21 01:49:11;;;;;;;;;;;;;;;;;;4996200;28;8375;-87
2022/09/21 01:51:42;;;;;;;;;;;;;;;;;;4995819;28;8290;-85
2022/09/21 01:54:11;;;;;;;;;;;;;;;;;;4996588;28;7164;-86
2022/09/21 01:56:41;;;;;;;;;;;;;;;;;;4995659;28;7060;-86
2022/09/21 01:59:19;;;;;;;;;;;;;;;;;;4995662;28;8715;-85
2022/09/21 02:01:55;;;;;;;;;;;;;;;;;;4995510;28;7045;-86
2022/09/21 02:04:20;;;;;;;;;;;;;;;;;;4995665;28;7156;-87
2022/09/21 02:06:48;;;;;;;;;;;;;;;;;;4996186;28;7323;-87
2022/09/21 02:09:14;;;;;;;;;;;;;;;;;;4995037;28;8709;-86
2022/09/21 02:11:42;;;;;;;;;;;;;;;;;;4995548;28;8386;-86
2022/09/21 02:14:11;;;;;;;;;;;;;;;;;;4996170;28;7356;-86
2022/09/21 02:16:54;;;;;;;;;;;;;;;;;;4995238;28;8787;-88
2022/09/21 02:19:35;;;;;;;;;;;;;;;;;;4995006;28;7239;-87
2022/09/21 02:22:11;;;;;;;;;;;;;;;;;;4994663;28;8369;-87
2022/09/21 02:24:37;;;;;;;;;;;;;;;;;;4995243;28;8510;-87
2022/09/21 02:27:14;;;;;;;;;;;;;;;;;;4978579;28;8378;-85
2022/09/21 02:29:50;;;;;;;;;;;;;;;;;;4994306;28;8559;-87
2022/09/21 02:32:36;;;;;;;;;;;;;;;;;;4995529;28;7177;-88
2022/09/21 02:35:08;;;;;;;;;;;;;;;;;;4994656;28;7064;-86
2022/09/21 02:37:46;;;;;;;;;;;;;;;;;;4994341;28;7594;-86
2022/09/21 02:40:34;;;;;;;;;;;;;;;;;;4994744;28;8396;-86
2022/09/21 02:43:05;;;;;;;;;;;;;;;;;;4994643;28;8421;-86
2022/09/21 02:45:36;;;;;;;;;;;;;;;;;;4994550;28;7419;-86
2022/09/21 02:48:07;;;;;;;;;;;;;;;;;;4994761;28;8307;-86
2022/09/21 02:50:41;;;;;;;;;;;;;;;;;;4994455;28;8949;-86
2022/09/21 02:53:10;;;;;;;;;;;;;;;;;;4995252;28;7051;-87
2022/09/21 02:55:37;;;;;;;;;;;;;;;;;;4994312;28;8909;-85
2022/09/21 02:58:06;;;;;;;;;;;;;;;;;;4994399;28;7152;-86
2022/09/21 03:00:34;;;;;;;;;;;;;;;;;;4994208;28;8403;-86
2022/09/21 03:03:15;;;;;;;;;;;;;;;;;;4994239;28;8674;-86
2022/09/21 03:05:42;;;;;;;;;;;;;;;;;;4996545;28;7192;-85
2022/09/21 03:08:08;;;;;;;;;;;;;;;;;;4997758;28;7137;-86
2022/09/21 03:10:35;;;;;;;;;;;;;;;;;;4997611;28;8810;-86
2022/09/21 03:13:01;;;;;;;;;;;;;;;;;;4998879;28;7160;-87
2022/09/21 03:15:26;;;;;;;;;;;;;;;;;;4999100;28;8358;-86
2022/09/21 03:17:52;;;;;;;;;;;;;;;;;;4997965;28;7152;-86
2022/09/21 03:20:17;;;;;;;;;;;;;;;;;;4998250;28;8270;-87
2022/09/21 03:22:43;;;;;;;;;;;;;;;;;;4981446;28;7124;-87
2022/09/21 03:25:11;;;;;;;;;;;;;;;;;;4998467;28;7108;-86
2022/09/21 03:27:36;;;;;;;;;;;;;;;;;;4998272;28;7020;-85
2022/09/21 03:30:02;;;;;;;;;;;;;;;;;;4999269;28;7132;-86
2022/09/21 03:32:27;;;;;;;;;;;;;;;;;;5000553;28;7918;-83
2022/09/21 03:34:52;;;;;;;;;;;;;;;;;;4999893;28;6995;-87
2022/09/21 03:37:18;;;;;;;;;;;;;;;;;;5001311;28;7383;-86
2022/09/21 03:39:45;;;;;;;;;;;;;;;;;;5000958;28;8232;-87
2022/09/21 03:42:12;;;;;;;;;;;;;;;;;;4998096;28;8739;-86
2022/09/21 03:44:39;;;;;;;;;;;;;;;;;;4998388;28;7031;-86
2022/09/21 03:47:05;;;;;;;;;;;;;;;;;;4998297;28;9255;-87
2022/09/21 03:49:31;;;;;;;;;;;;;;;;;;4997840;28;8389;-87
2022/09/21 03:51:58;;;;;;;;;;;;;;;;;;4997472;28;8433;-87
2022/09/21 03:54:24;;;;;;;;;;;;;;;;;;4997057;28;7244;-87
2022/09/21 03:56:50;;;;;;;;;;;;;;;;;;4998866;28;7164;-86
2022/09/21 03:59:16;;;;;;;;;;;;;;;;;;4997557;28;8378;-86
2022/09/21 04:01:42;;;;;;;;;;;;;;;;;;4997291;28;7033;-86
2022/09/21 04:04:07;;;;;;;;;;;;;;;;;;4997289;28;8309;-85
2022/09/21 04:06:33;;;;;;;;;;;;;;;;;;4997279;28;7003;-87
2022/09/21 04:09:01;;;;;;;;;;;;;;;;;;4996685;28;8389;-86
2022/09/21 04:11:27;;;;;;;;;;;;;;;;;;5002330;28;9081;-83
2022/09/21 04:13:55;;;;;;;;;;;;;;;;;;5003771;28;7021;-85
2022/09/21 04:16:22;;;;;;;;;;;;;;;;;;5002661;28;7248;-81
2022/09/21 04:18:51;;;;;;;;;;;;;;;;;;5003626;28;7270;-82
2022/09/21 04:21:17;;;;;;;;;;;;;;;;;;5002123;28;8406;-85
2022/09/21 04:23:43;;;;;;;;;;;;;;;;;;5002645;28;7158;-83
2022/09/21 04:26:39;;;;;;;;;;;;;;;;;;5001832;28;7317;-85
2022/09/21 04:29:05;;;;;;;;;;;;;;;;;;4969419;28;7152;-83
2022/09/21 04:31:32;;;;;;;;;;;;;;;;;;5000596;28;7233;-86
2022/09/21 04:33:58;;;;;;;;;;;;;;;;;;4999369;28;7024;-85
2022/09/21 04:36:24;;;;;;;;;;;;;;;;;;4998302;28;7059;-86
2022/09/21 04:38:50;;;;;;;;;;;;;;;;;;4996636;28;7996;-87
2022/09/21 04:41:17;;;;;;;;;;;;;;;;;;4996701;28;8499;-85
2022/09/21 04:43:46;;;;;;;;;;;;;;;;;;4996471;28;7158;-85
2022/09/21 04:46:14;;;;;;;;;;;;;;;;;;4996640;28;7163;-86
2022/09/21 04:48:41;;;;;;;;;;;;;;;;;;4996276;28;8765;-85
2022/09/21 04:51:08;;;;;;;;;;;;;;;;;;4996158;28;8700;-86
2022/09/21 04:53:34;;;;;;;;;;;;;;;;;;4996129;28;7124;-86
2022/09/21 04:56:00;;;;;;;;;;;;;;;;;;4996324;28;8303;-86
2022/09/21 04:58:26;;;;;;;;;;;;;;;;;;4996101;28;8660;-86
2022/09/21 05:00:54;;;;;;;;;;;;;;;;;;4995679;28;7164;-87
2022/09/21 05:03:20;;;;;;;;;;;;;;;;;;4996192;28;7042;-87
2022/09/21 05:05:50;;;;;;;;;;;;;;;;;;4995689;28;8396;-86
2022/09/21 05:08:16;;;;;;;;;;;;;;;;;;4995792;28;8381;-86
2022/09/21 05:10:43;;;;;;;;;;;;;;;;;;4995461;28;7202;-85
2022/09/21 05:13:09;;;;;;;;;;;;;;;;;;4995778;28;7176;-87
2022/09/21 05:15:38;;;;;;;;;;;;;;;;;;4995333;28;8591;-87
2022/09/21 05:18:04;;;;;;;;;;;;;;;;;;4995975;28;7010;-86
2022/09/21 05:20:29;;;;;;;;;;;;;;;;;;4995688;28;7204;-86
2022/09/21 05:22:58;;;;;;;;;;;;;;;;;;4995765;28;8225;-87
2022/09/21 05:25:23;;;;;;;;;;;;;;;;;;4995993;28;8441;-87
2022/09/21 05:27:49;;;;;;;;;;;;;;;;;;5002435;28;7466;-79
2022/09/21 05:30:15;;;;;;;;;;;;;;;;;;5003327;28;8453;-83
2022/09/21 05:32:40;;;;;;;;;;;;;;;;;;5003591;28;8587;-86
2022/09/21 05:35:24;;;;;;;;;;;;;;;;;;4987932;28;8455;-82
2022/09/21 05:37:55;;;;;;;;;;;;;;;;;;5006814;28;8402;-80
2022/09/21 05:40:21;;;;;;;;;;;;;;;;;;4988254;28;7334;-81
2022/09/21 05:42:47;;;;;;;;;;;;;;;;;;5001044;28;8367;-79
2022/09/21 05:45:17;;;;;;;;;;;;;;;;;;5001684;28;8680;-85
2022/09/21 05:48:11;;;;;;;;;;;;;;;;;;4997598;28;7170;-86
2022/09/21 05:50:49;;;;;;;;;;;;;;;;;;4964055;28;8421;-86
2022/09/21 05:53:23;;;;;;;;;;;;;;;;;;4982264;28;7070;-82
2022/09/21 05:55:55;;;;;;;;;;;;;;;;;;4999733;28;8263;-81
2022/09/21 05:58:27;;;;;;;;;;;;;;;;;;5000986;28;8419;-85
2022/09/21 06:01:01;;;;;;;;;;;;;;;;;;4984181;28;7179;-85
2022/09/21 06:03:33;;;;;;;;;;;;;;;;;;4981247;28;7046;-86
2022/09/21 06:05:59;;;;;;;;;;;;;;;;;;4995271;28;7054;-82
2022/09/21 06:08:25;;;;;;;;;;;;;;;;;;4985728;28;8454;-83
2022/09/21 06:10:52;;;;;;;;;;;;;;;;;;4995172;28;7044;-78
2022/09/21 06:13:18;;;;;;;;;;;;;;;;;;4988607;28;8513;-81
2022/09/21 06:15:43;;;;;;;;;;;;;;;;;;4984060;28;8265;-80
2022/09/21 06:18:09;;;;;;;;;;;;;;;;;;4981658;28;8680;-85
2022/09/21 06:20:35;;;;;;;;;;;;;;;;;;4979565;28;7165;-82
2022/09/21 06:23:05;;;;;;;;;;;;;;;;;;4980360;28;7160;-79
2022/09/21 06:25:31;;;;;;;;;;;;;;;;;;4987124;28;9058;-78
2022/09/21 09:12:24;;;;;;;;;;;;;;;;;;5043450;28;6610;-79
2022/09/21 09:14:49;;;;;;;;;;;;;;;;;;5039523;28;8427;-79
2022/09/21 09:17:33;;;;;;;;;;;;;;;;;;5023486;28;9025;-80
2022/09/21 09:19:59;;;;;;;;;;;;;;;;;;5023900;28;8838;-78
2022/09/21 09:22:28;;;;;;;;;;;;;;;;;;5023064;28;9088;-79
2022/09/21 09:24:58;;;;;;;;;;;;;;;;;;5038746;28;8858;-79
2022/09/21 09:27:23;;;;;;;;;;;;;;;;;;5038851;28;7144;-79
2022/09/21 09:29:58;;;;;;;;;;;;;;;;;;5022652;28;7161;-79
2022/09/21 09:32:29;;;;;;;;;;;;;;;;;;5023059;28;7149;-78
2022/09/21 09:35:02;;;;;;;;;;;;;;;;;;5039993;28;7024;-78
2022/09/21 09:37:32;;;;;;;;;;;;;;;;;;5040084;28;8740;-79
2022/09/21 09:40:00;;;;;;;;;;;;;;;;;;5039788;28;8472;-79
2022/09/21 09:42:25;;;;;;;;;;;;;;;;;;5053196;28;8516;-87
2022/09/21 09:44:50;;;;;;;;;;;;;;;;;;5020095;28;7198;-84
2022/09/21 09:47:30;;;;;;;;;;;;;;;;;;5018979;28;8387;-86
2022/09/21 09:49:58;;;;;;;;;;;;;;;;;;5034981;28;7128;-83
2022/09/21 09:52:24;;;;;;;;;;;;;;;;;;5019532;28;8395;-82
2022/09/21 09:54:50;;;;;;;;;;;;;;;;;;5036429;28;7225;-83
2022/09/21 09:57:24;;;;;;;;;;;;;;;;;;5038906;28;7176;-81
2022/09/21 09:59:56;;;;;;;;;;;;;;;;;;5039770;28;7048;-81
2022/09/21 10:02:26;;;;;;;;;;;;;;;;;;5039575;28;8934;-81
2022/09/21 10:05:04;;;;;;;;;;;;;;;;;;5039666;28;7237;-81
2022/09/21 10:07:40;;;;;;;;;;;;;;;;;;5039881;28;8322;-80
2022/09/21 10:10:25;;;;;;;;;;;;;;;;;;5041621;28;8654;-81
2022/09/21 10:12:53;;;;;;;;;;;;;;;;;;5042280;28;8308;-80
2022/09/21 10:15:22;;;;;;;;;;;;;;;;;;5059238;28;7176;-80
2022/09/21 10:17:57;;;;;;;;;;;;;;;;;;5058868;28;7101;-81
2022/09/21 10:20:24;;;;;;;;;;;;;;;;;;5058630;28;7035;-81
2022/09/21 10:22:55;;;;;;;;;;;;;;;;;;5050205;28;7170;-82
2022/09/21 10:25:20;;;;;;;;;;;;;;;;;;5042797;28;8785;-86
2022/09/21 10:27:49;;;;;;;;;;;;;;;;;;5041918;28;8298;-83
2022/09/21 10:30:30;;;;;;;;;;;;;;;;;;5043906;28;7163;-81
2022/09/21 10:32:57;;;;;;;;;;;;;;;;;;5028788;28;7279;-82
2022/09/21 10:35:24;;;;;;;;;;;;;;;;;;5045403;28;8392;-82
2022/09/21 10:38:10;;;;;;;;;;;;;;;;;;5044890;28;8837;-80
2022/09/21 10:40:38;;;;;;;;;;;;;;;;;;5044799;28;7020;-79
2022/09/21 10:43:04;;;;;;;;;;;;;;;;;;5044548;28;7184;-79
2022/09/21 10:45:37;;;;;;;;;;;;;;;;;;5045695;28;7136;-79
2022/09/21 10:48:16;;;;;;;;;;;;;;;;;;5045375;28;8400;-80
2022/09/21 10:50:44;;;;;;;;;;;;;;;;;;5045287;28;9942;-81
2022/09/21 10:53:21;;;;;;;;;;;;;;;;;;5044874;28;8393;-80
2022/09/21 10:55:55;;;;;;;;;;;;;;;;;;5045112;28;7167;-80
2022/09/21 10:58:21;;;;;;;;;;;;;;;;;;5045198;28;8702;-79
2022/09/21 11:00:49;;;;;;;;;;;;;;;;;;5045265;28;8497;-79
2022/09/21 11:03:30;;;;;;;;;;;;;;;;;;5044976;28;7119;-79
2022/09/21 11:05:58;;;;;;;;;;;;;;;;;;5044897;28;8398;-79
2022/09/21 11:08:32;;;;;;;;;;;;;;;;;;5045005;28;8396;-79
2022/09/21 11:11:24;;;;;;;;;;;;;;;;;;5044554;28;8677;-79
2022/09/21 11:14:06;;;;;;;;;;;;;;;;;;5058308;28;7419;-79
2022/09/21 11:16:54;;;;;;;;;;;;;;;;;;5045241;28;7153;-79
2022/09/21 11:19:39;;;;;;;;;;;;;;;;;;5043898;28;7256;-79
2022/09/21 11:22:07;;;;;;;;;;;;;;;;;;5028039;28;8372;-79
2022/09/21 11:24:44;;;;;;;;;;;;;;;;;;5027092;28;7177;-79
2022/09/21 11:27:23;;;;;;;;;;;;;;;;;;5042504;28;8593;-79
2022/09/21 11:29:54;;;;;;;;;;;;;;;;;;5043838;28;7179;-79
2022/09/21 11:32:20;;;;;;;;;;;;;;;;;;5026446;28;7148;-78
2022/09/21 11:34:54;;;;;;;;;;;;;;;;;;5026299;28;8684;-78
2022/09/21 11:37:30;;;;;;;;;;;;;;;;;;5024962;28;7039;-85
2022/09/21 11:40:15;;;;;;;;;;;;;;;;;;5031716;28;7087;-84
2022/09/21 11:42:43;;;;;;;;;;;;;;;;;;5016742;28;8693;-84
2022/09/21 11:45:27;;;;;;;;;;;;;;;;;;5021724;28;8700;-85
2022/09/21 11:48:11;;;;;;;;;;;;;;;;;;5025643;28;8322;-82
2022/09/21 11:50:39;;;;;;;;;;;;;;;;;;5025137;28;7030;-81
2022/09/21 11:53:17;;;;;;;;;;;;;;;;;;5022384;28;8403;-84
2022/09/21 11:56:01;;;;;;;;;;;;;;;;;;5037892;28;8503;-79
2022/09/21 11:58:38;;;;;;;;;;;;;;;;;;5026755;28;8720;-79
2022/09/21 12:01:10;;;;;;;;;;;;;;;;;;5036455;28;8609;-80
2022/09/21 12:03:46;;;;;;;;;;;;;;;;;;5024495;28;7338;-79
2022/09/21 12:06:21;;;;;;;;;;;;;;;;;;5038651;28;8698;-83
2022/09/21 12:09:00;;;;;;;;;;;;;;;;;;5038447;28;7193;-82
2022/09/21 12:11:32;;;;;;;;;;;;;;;;;;5038848;28;7363;-87
2022/09/21 12:14:03;;;;;;;;;;;;;;;;;;5020255;28;9313;-83
2022/09/21 12:16:32;;;;;;;;;;;;;;;;;;5016733;28;8306;-83
2022/09/21 12:18:58;;;;;;;;;;;;;;;;;;5018403;28;7176;-83
2022/09/21 12:21:28;;;;;;;;;;;;;;;;;;5017082;28;8368;-87
2022/09/21 12:23:56;;;;;;;;;;;;;;;;;;5038582;28;7235;-81
2022/09/21 12:26:30;;;;;;;;;;;;;;;;;;5036799;28;8425;-82
2022/09/21 12:29:02;;;;;;;;;;;;;;;;;;5035474;28;7151;-83
2022/09/21 12:31:40;;;;;;;;;;;;;;;;;;5030791;28;7923;-85
2022/09/21 12:34:15;;;;;;;;;;;;;;;;;;5030827;28;8593;-83
2022/09/21 12:36:46;;;;;;;;;;;;;;;;;;5029974;28;8585;-86
2022/09/21 12:39:21;;;;;;;;;;;;;;;;;;5032482;28;8666;-86
2022/09/21 12:41:52;;;;;;;;;;;;;;;;;;5012527;28;7180;-83
2022/09/21 12:44:50;;;;;;;;;;;;;;;;;;5028957;28;8437;-85
2022/09/21 12:47:22;;;;;;;;;;;;;;;;;;5020450;28;7449;-86
2022/09/21 12:49:50;;;;;;;;;;;;;;;;;;5029575;28;7060;-84
2022/09/21 12:52:25;;;;;;;;;;;;;;;;;;5029435;28;7098;-86
2022/09/21 12:54:51;;;;;;;;;;;;;;;;;;5029202;28;8408;-85
2022/09/21 12:57:21;;;;;;;;;;;;;;;;;;5014683;28;8443;-86
2022/09/21 12:59:49;;;;;;;;;;;;;;;;;;5014629;28;7053;-86
2022/09/21 13:02:32;;;;;;;;;;;;;;;;;;5013811;28;7169;-84
2022/09/21 13:05:12;;;;;;;;;;;;;;;;;;5030742;28;7150;-86
2022/09/21 13:07:59;;;;;;;;;;;;;;;;;;5031196;28;7073;-86
2022/09/21 13:10:27;;;;;;;;;;;;;;;;;;5030514;28;8705;-85
2022/09/21 13:12:58;;;;;;;;;;;;;;;;;;5013672;28;7002;-84
2022/09/21 13:15:26;;;;;;;;;;;;;;;;;;5030389;28;7049;-86
2022/09/21 13:18:04;;;;;;;;;;;;;;;;;;5030753;28;8437;-85
2022/09/21 13:20:50;;;;;;;;;;;;;;;;;;5030412;28;8446;-86
2022/09/21 13:23:26;;;;;;;;;;;;;;;;;;5030428;28;8323;-86
2022/09/21 13:26:00;;;;;;;;;;;;;;;;;;5031290;28;7076;-86
2022/09/21 13:28:43;;;;;;;;;;;;;;;;;;5030468;28;7132;-86
2022/09/21 13:31:18;;;;;;;;;;;;;;;;;;5030027;28;8621;-87
2022/09/21 13:34:02;;;;;;;;;;;;;;;;;;5013474;28;8395;-87
2022/09/21 13:36:30;;;;;;;;;;;;;;;;;;5014143;28;8680;-86
2022/09/21 13:39:02;;;;;;;;;;;;;;;;;;5030523;28;8923;-88
2022/09/21 13:41:28;;;;;;;;;;;;;;;;;;5030282;28;7223;-87
2022/09/21 13:43:57;;;;;;;;;;;;;;;;;;5030133;28;8498;-87
2022/09/21 13:46:31;;;;;;;;;;;;;;;;;;5013790;28;8369;-86
2022/09/21 13:49:01;;;;;;;;;;;;;;;;;;5013736;28;8420;-86
2022/09/21 13:51:32;;;;;;;;;;;;;;;;;;5029698;28;7045;-87
2022/09/21 13:54:01;;;;;;;;;;;;;;;;;;5030054;28;8360;-86
2022/09/21 13:56:28;;;;;;;;;;;;;;;;;;5029948;28;8855;-87
2022/09/21 13:58:57;;;;;;;;;;;;;;;;;;5033454;28;8518;-87
2022/09/21 14:01:32;;;;;;;;;;;;;;;;;;5034561;28;7164;-87
2022/09/21 14:04:01;;;;;;;;;;;;;;;;;;5033730;28;7165;-87
2022/09/21 14:06:40;;;;;;;;;;;;;;;;;;5033468;28;8378;-84
2022/09/21 14:09:17;;;;;;;;;;;;;;;;;;5033584;28;8725;-84
2022/09/21 14:11:48;;;;;;;;;;;;;;;;;;5033310;28;8487;-85
2022/09/21 14:14:20;;;;;;;;;;;;;;;;;;5033388;28;7450;-87
2022/09/21 14:16:48;;;;;;;;;;;;;;;;;;5033377;28;8476;-87
2022/09/21 14:19:14;;;;;;;;;;;;;;;;;;5016993;28;8407;-86
2022/09/21 14:22:00;;;;;;;;;;;;;;;;;;5016890;28;8493;-87
2022/09/21 14:24:37;;;;;;;;;;;;;;;;;;5033385;28;8379;-85
2022/09/21 14:27:24;;;;;;;;;;;;;;;;;;5033629;28;8397;-86
2022/09/21 14:29:55;;;;;;;;;;;;;;;;;;5016601;28;7248;-84
2022/09/21 14:32:25;;;;;;;;;;;;;;;;;;5016570;28;7141;-84
2022/09/21 14:34:57;;;;;;;;;;;;;;;;;;5032751;28;8675;-86
2022/09/21 14:37:37;;;;;;;;;;;;;;;;;;5033112;28;8382;-81
2022/09/21 14:40:13;;;;;;;;;;;;;;;;;;5034281;28;8344;-87
2022/09/21 14:42:40;;;;;;;;;;;;;;;;;;5033349;28;7135;-85
2022/09/21 14:45:13;;;;;;;;;;;;;;;;;;5033435;28;8621;-87
2022/09/21 14:47:45;;;;;;;;;;;;;;;;;;5033125;28;7142;-86
2022/09/21 14:50:29;;;;;;;;;;;;;;;;;;5016049;28;8412;-87
2022/09/21 14:53:13;;;;;;;;;;;;;;;;;;5033246;28;8545;-86
2022/09/21 14:55:48;;;;;;;;;;;;;;;;;;5015861;28;8504;-86
2022/09/21 14:58:31;;;;;;;;;;;;;;;;;;5017090;28;8754;-86
2022/09/21 15:01:17;;;;;;;;;;;;;;;;;;5033416;28;8984;-87
2022/09/21 15:03:47;;;;;;;;;;;;;;;;;;5032485;28;7043;-86
2022/09/21 15:11:55;;;;;;;;;;;;;;;;;;5016594;28;6765;-75
2022/09/21 15:14:23;;;;;;;;;;;;;;;;;;5032652;28;7073;-85
2022/09/21 15:16:50;;;;;;;;;;;;;;;;;;5016281;28;7431;-87
2022/09/21 15:19:26;;;;;;;;;;;;;;;;;;5032744;28;7250;-85
2022/09/21 15:22:08;;;;;;;;;;;;;;;;;;5032385;28;7273;-86
2022/09/21 15:24:34;;;;;;;;;;;;;;;;;;5032535;28;7217;-87
2022/09/21 15:27:05;;;;;;;;;;;;;;;;;;5032719;28;7137;-88
2022/09/21 15:29:32;;;;;;;;;;;;;;;;;;5033265;28;7184;-86
2022/09/21 15:31:58;;;;;;;;;;;;;;;;;;5032589;28;8394;-85
2022/09/21 15:34:24;;;;;;;;;;;;;;;;;;5032136;28;8297;-85
2022/09/21 15:36:51;;;;;;;;;;;;;;;;;;5030475;28;8686;-86
2022/09/21 15:39:26;;;;;;;;;;;;;;;;;;5032046;28;7166;-89
2022/09/21 15:42:16;;;;;;;;;;;;;;;;;;5032031;28;7180;-87
2022/09/21 15:44:47;;;;;;;;;;;;;;;;;;5032229;28;8311;-86
2022/09/21 15:47:14;;;;;;;;;;;;;;;;;;5032467;28;6827;-87
2022/09/21 15:49:41;;;;;;;;;;;;;;;;;;5031742;28;7057;-85
2022/09/21 15:52:12;;;;;;;;;;;;;;;;;;5031823;28;7163;-86
2022/09/21 15:54:44;;;;;;;;;;;;;;;;;;5015069;28;7412;-86
2022/09/21 15:57:29;;;;;;;;;;;;;;;;;;5032026;28;7177;-86
2022/09/21 15:59:55;;;;;;;;;;;;;;;;;;5014650;28;7153;-86
2022/09/21 16:02:24;;;;;;;;;;;;;;;;;;5031456;28;7213;-85
2022/09/21 16:04:51;;;;;;;;;;;;;;;;;;5031850;28;7054;-86
2022/09/21 16:07:26;;;;;;;;;;;;;;;;;;5030711;28;8473;-86
2022/09/21 16:09:52;;;;;;;;;;;;;;;;;;5014305;28;8385;-86
2022/09/21 16:12:36;;;;;;;;;;;;;;;;;;5031550;28;7141;-87
2022/09/21 16:15:15;;;;;;;;;;;;;;;;;;5015854;28;7120;-86
2022/09/21 16:17:53;;;;;;;;;;;;;;;;;;5031107;28;9042;-89
2022/09/21 16:20:22;;;;;;;;;;;;;;;;;;5014469;28;7152;-86
2022/09/21 16:22:53;;;;;;;;;;;;;;;;;;5031311;28;7056;-86
2022/09/21 16:25:19;;;;;;;;;;;;;;;;;;5031223;28;7069;-86
2022/09/21 16:27:54;;;;;;;;;;;;;;;;;;5014563;28;7108;-85
2022/09/21 16:30:39;;;;;;;;;;;;;;;;;;5030683;28;7395;-85
2022/09/21 16:33:23;;;;;;;;;;;;;;;;;;5015444;28;6969;-86
2022/09/21 16:35:49;;;;;;;;;;;;;;;;;;5014253;28;8424;-86
2022/09/21 16:38:15;;;;;;;;;;;;;;;;;;5030883;28;8273;-86
2022/09/21 16:40:41;;;;;;;;;;;;;;;;;;5031094;28;8319;-86
2022/09/21 16:43:09;;;;;;;;;;;;;;;;;;5015409;28;7072;-87
2022/09/21 16:45:35;;;;;;;;;;;;;;;;;;5030550;28;8576;-87
2022/09/21 16:48:07;;;;;;;;;;;;;;;;;;5031628;28;7188;-85
2022/09/21 16:50:33;;;;;;;;;;;;;;;;;;5030805;28;8770;-87
2022/09/21 16:52:58;;;;;;;;;;;;;;;;;;5031350;28;7235;-86
2022/09/21 16:55:24;;;;;;;;;;;;;;;;;;5029958;28;7211;-85
2022/09/21 16:57:49;;;;;;;;;;;;;;;;;;5030781;28;7178;-85
2022/09/21 17:00:20;;;;;;;;;;;;;;;;;;5030255;28;7295;-85
2022/09/21 17:02:47;;;;;;;;;;;;;;;;;;5029833;28;7396;-86
2022/09/21 17:05:16;;;;;;;;;;;;;;;;;;5030032;28;7180;-86
2022/09/21 17:07:56;;;;;;;;;;;;;;;;;;5030564;28;7189;-87
2022/09/21 17:10:30;;;;;;;;;;;;;;;;;;5030508;28;7172;-86
2022/09/21 17:12:56;;;;;;;;;;;;;;;;;;5030417;28;7182;-89
2022/09/21 17:15:22;;;;;;;;;;;;;;;;;;5030296;28;8636;-87
2022/09/21 17:17:49;;;;;;;;;;;;;;;;;;5030844;28;8458;-87
2022/09/21 17:20:24;;;;;;;;;;;;;;;;;;5030520;28;7993;-87
2022/09/21 17:22:49;;;;;;;;;;;;;;;;;;5030456;28;7162;-85
2022/09/21 17:25:15;;;;;;;;;;;;;;;;;;5030679;28;8286;-87
2022/09/21 17:27:44;;;;;;;;;;;;;;;;;;5031173;28;7129;-86
2022/09/21 17:30:12;;;;;;;;;;;;;;;;;;5030316;28;8782;-85
2022/09/21 17:32:41;;;;;;;;;;;;;;;;;;5031584;28;7041;-87
2022/09/21 17:35:21;;;;;;;;;;;;;;;;;;5033926;28;7009;-85
2022/09/21 17:37:46;;;;;;;;;;;;;;;;;;5034822;28;7498;-86
2022/09/21 17:40:13;;;;;;;;;;;;;;;;;;5033915;28;8220;-87
2022/09/21 17:42:40;;;;;;;;;;;;;;;;;;5033956;28;7074;-86
2022/09/21 17:45:14;;;;;;;;;;;;;;;;;;5034292;28;7055;-87
2022/09/21 17:47:40;;;;;;;;;;;;;;;;;;5017270;28;8506;-83
2022/09/21 17:50:09;;;;;;;;;;;;;;;;;;5034119;28;8267;-83
2022/09/21 17:55:19;;;;;;;;;;;;;;;;;;5018570;28;6898;-82
2022/09/21 17:58:04;;;;;;;;;;;;;;;;;;5033025;28;7041;-82
2022/09/21 18:00:30;;;;;;;;;;;;;;;;;;5016592;28;7205;-83
2022/09/21 18:02:55;;;;;;;;;;;;;;;;;;5017374;28;8380;-83
2022/09/21 18:05:24;;;;;;;;;;;;;;;;;;5034128;28;7129;-83
2022/09/21 18:07:50;;;;;;;;;;;;;;;;;;5033543;28;8399;-84
2022/09/21 18:10:16;;;;;;;;;;;;;;;;;;5033548;28;7145;-84
2022/09/21 18:13:17;;;;;;;;;;;;;;;;;;5032675;28;7107;-83
2022/09/21 18:15:52;;;;;;;;;;;;;;;;;;4991712;28;7172;-79
2022/09/21 18:18:36;;;;;;;;;;;;;;;;;;5023088;28;7146;-83
2022/09/21 18:21:04;;;;;;;;;;;;;;;;;;5012624;28;7159;-82
2022/09/21 18:23:48;;;;;;;;;;;;;;;;;;5031310;28;7232;-84
2022/09/21 18:26:15;;;;;;;;;;;;;;;;;;5015545;28;8727;-85
2022/09/21 18:28:43;;;;;;;;;;;;;;;;;;5031634;28;7727;-84
2022/09/21 18:31:23;;;;;;;;;;;;;;;;;;5033034;28;6955;-83
2022/09/21 18:33:55;;;;;;;;;;;;;;;;;;5033049;28;7106;-84
2022/09/21 18:36:28;;;;;;;;;;;;;;;;;;5032929;28;7055;-84
2022/09/21 18:39:00;;;;;;;;;;;;;;;;;;5033331;28;7041;-85
2022/09/21 18:41:31;;;;;;;;;;;;;;;;;;5017566;28;6989;-83
2022/09/21 18:44:09;;;;;;;;;;;;;;;;;;5015346;28;7138;-83
2022/09/21 18:46:41;;;;;;;;;;;;;;;;;;5033024;28;7037;-82
2022/09/21 18:49:17;;;;;;;;;;;;;;;;;;5016046;28;8311;-84
2022/09/21 18:51:52;;;;;;;;;;;;;;;;;;5032665;28;8466;-84
2022/09/21 18:54:20;;;;;;;;;;;;;;;;;;5032482;28;7415;-84
2022/09/21 18:56:46;;;;;;;;;;;;;;;;;;5032342;28;8828;-83
2022/09/21 18:59:12;;;;;;;;;;;;;;;;;;5032388;28;7158;-83
2022/09/21 19:01:40;;;;;;;;;;;;;;;;;;5032128;28;7234;-83
2022/09/21 19:04:06;;;;;;;;;;;;;;;;;;5032306;28;7263;-84
2022/09/21 19:06:36;;;;;;;;;;;;;;;;;;5032879;28;6786;-84
2022/09/21 19:09:01;;;;;;;;;;;;;;;;;;5015902;28;8426;-83
2022/09/21 19:11:31;;;;;;;;;;;;;;;;;;5015818;28;8398;-84
2022/09/21 19:14:07;;;;;;;;;;;;;;;;;;5015751;28;7361;-83
2022/09/21 19:16:49;;;;;;;;;;;;;;;;;;5032550;28;7153;-82
2022/09/21 19:19:17;;;;;;;;;;;;;;;;;;5032302;28;8299;-83
2022/09/21 19:21:55;;;;;;;;;;;;;;;;;;5015463;28;8373;-84
2022/09/21 19:24:36;;;;;;;;;;;;;;;;;;5016030;28;7248;-85
2022/09/21 19:27:20;;;;;;;;;;;;;;;;;;5032391;28;8374;-84
2022/09/21 19:29:46;;;;;;;;;;;;;;;;;;5015612;28;8734;-84
2022/09/21 19:32:14;;;;;;;;;;;;;;;;;;5015693;28;7132;-84
2022/09/21 19:34:40;;;;;;;;;;;;;;;;;;5031429;28;8336;-83
2022/09/21 19:37:05;;;;;;;;;;;;;;;;;;5022597;28;7022;-83
2022/09/21 19:39:31;;;;;;;;;;;;;;;;;;5030786;28;8422;-83
2022/09/21 19:42:02;;;;;;;;;;;;;;;;;;5020312;28;8387;-83
2022/09/21 19:44:54;;;;;;;;;;;;;;;;;;5011835;28;7349;-86
2022/09/21 19:47:23;;;;;;;;;;;;;;;;;;5030017;28;7065;-85
2022/09/21 19:49:53;;;;;;;;;;;;;;;;;;5014030;28;8857;-85
2022/09/21 19:52:25;;;;;;;;;;;;;;;;;;5021905;28;7129;-86
2022/09/21 20:00:23;;;;;;;;;;;;;;;;;;5013518;28;7247;-85
2022/09/21 20:02:55;;;;;;;;;;;;;;;;;;5026983;28;8371;-86
2022/09/21 20:05:27;;;;;;;;;;;;;;;;;;5029722;28;7195;-87
2022/09/21 20:07:55;;;;;;;;;;;;;;;;;;5013628;28;7450;-86
2022/09/21 20:10:24;;;;;;;;;;;;;;;;;;5013265;28;7048;-87
2022/09/21 20:13:07;;;;;;;;;;;;;;;;;;5013455;28;7166;-86
2022/09/21 20:15:40;;;;;;;;;;;;;;;;;;5028666;28;7129;-86
2022/09/21 20:18:06;;;;;;;;;;;;;;;;;;5025535;28;8291;-84
2022/09/21 20:20:32;;;;;;;;;;;;;;;;;;5013085;28;7249;-87
2022/09/21 20:22:59;;;;;;;;;;;;;;;;;;5021574;28;7228;-85
2022/09/21 20:25:24;;;;;;;;;;;;;;;;;;5021737;28;7179;-85
2022/09/21 20:27:52;;;;;;;;;;;;;;;;;;5013037;28;7156;-86
2022/09/21 20:30:23;;;;;;;;;;;;;;;;;;5027350;28;8393;-86